createdAt,value
2018-11-28T03:14:32.842Z,1009.90
2018-11-28T03:15:32.800Z,1009.92
2018-11-28T03:16:32.757Z,1009.97
2018-11-28T03:17:32.716Z,1009.94
2018-11-28T03:18:32.706Z,1009.93
2018-11-28T03:19:32.710Z,1009.97
2018-11-28T03:20:32.684Z,1010.01
2018-11-28T03:21:32.671Z,1010.03
2018-11-28T03:22:32.696Z,1010.01
2018-11-28T03:23:32.671Z,1010.02
2018-11-28T03:24:32.632Z,1010.03
2018-11-28T03:25:32.663Z,1010.04
2018-11-28T03:26:32.590Z,1010.01
2018-11-28T03:27:32.616Z,1010.03
2018-11-28T03:28:32.591Z,1009.97
2018-11-28T03:29:32.577Z,1009.94
2018-11-28T03:30:32.580Z,1009.94
2018-11-28T03:31:32.539Z,1009.95
2018-11-28T03:32:32.532Z,1009.98
2018-11-28T03:33:40.141Z,1009.95
2018-11-28T03:34:32.513Z,1009.93
2018-11-28T03:35:32.512Z,1009.94
2018-11-28T03:36:32.476Z,1009.94
2018-11-28T03:37:41.114Z,1009.97
2018-11-28T03:39:25.861Z,1010.03
2018-11-28T03:40:25.876Z,1010.02
2018-11-28T03:42:19.783Z,1010.05
2018-11-28T03:43:19.412Z,1009.98
2018-11-28T03:44:19.389Z,1010.03
2018-11-28T03:45:19.370Z,1010.04
2018-11-28T03:46:19.384Z,1010.02
2018-11-28T03:47:19.335Z,1010.02
2018-11-28T03:48:19.315Z,1010.03
2018-11-28T03:49:19.327Z,1010.00
2018-11-28T03:50:19.308Z,1010.00
2018-11-28T03:51:19.284Z,1009.97
2018-11-28T03:52:19.273Z,1009.99
2018-11-28T03:53:19.281Z,1009.98
2018-11-28T03:54:19.343Z,1009.95
2018-11-28T03:55:19.295Z,1009.93
2018-11-28T03:56:19.217Z,1009.96
2018-11-28T03:57:19.222Z,1009.97
2018-11-28T03:58:19.276Z,1009.97
2018-11-28T03:59:19.208Z,1010.01
2018-11-28T04:00:19.192Z,1010.01
2018-11-28T04:01:19.243Z,1010.02
2018-11-28T04:02:19.164Z,1009.98
2018-11-28T04:03:19.188Z,1009.97
2018-11-28T04:04:19.184Z,1009.98
2018-11-28T04:05:19.166Z,1009.99
2018-11-28T04:06:19.138Z,1010.00
2018-11-28T04:07:19.101Z,1010.01
2018-11-28T04:08:19.096Z,1009.97
2018-11-28T04:09:19.096Z,1009.99
2018-11-28T04:10:19.081Z,1009.98
2018-11-28T04:11:19.054Z,1009.97
2018-11-28T04:12:19.041Z,1009.97
2018-11-28T04:13:19.060Z,1010.01
2018-11-28T04:14:19.025Z,1010.03
2018-11-28T04:15:19.027Z,1010.02
2018-11-28T04:16:19.078Z,1010.03
2018-11-28T04:17:19.001Z,1010.03
2018-11-28T04:18:18.990Z,1010.01
2018-11-28T04:19:18.972Z,1009.97
2018-11-28T04:20:18.946Z,1009.92
2018-11-28T04:21:18.938Z,1009.93
2018-11-28T04:22:18.975Z,1009.92
2018-11-28T04:23:18.938Z,1009.95
2018-11-28T04:24:18.927Z,1009.94
2018-11-28T04:25:18.885Z,1009.97
2018-11-28T04:26:18.905Z,1009.99
2018-11-28T04:27:18.878Z,1009.97
2018-11-28T04:28:18.914Z,1009.93
2018-11-28T04:29:18.826Z,1009.91
2018-11-28T04:30:18.836Z,1009.93
2018-11-28T04:31:18.826Z,1009.94
2018-11-28T04:32:18.787Z,1009.92
2018-11-28T04:33:18.789Z,1009.91
2018-11-28T04:34:18.767Z,1009.93
2018-11-28T04:35:18.789Z,1009.91
2018-11-28T04:36:18.782Z,1009.98
2018-11-28T04:37:18.809Z,1009.92
2018-11-28T04:38:18.758Z,1009.93
2018-11-28T04:39:18.769Z,1009.93
2018-11-28T04:40:18.699Z,1009.95
2018-11-28T04:41:18.749Z,1009.94
2018-11-28T04:42:18.722Z,1009.89
2018-11-28T04:43:18.656Z,1009.89
2018-11-28T04:44:18.654Z,1009.89
2018-11-28T04:45:18.663Z,1009.92
2018-11-28T04:46:18.630Z,1009.93
2018-11-28T04:47:18.624Z,1009.94
2018-11-28T04:48:18.601Z,1009.94
2018-11-28T04:49:18.587Z,1009.98
2018-11-28T04:50:18.605Z,1009.99
2018-11-28T04:51:18.601Z,1009.98
2018-11-28T04:52:18.569Z,1009.98
2018-11-28T04:53:18.544Z,1009.97
2018-11-28T04:54:18.528Z,1009.93
2018-11-28T04:55:18.579Z,1009.95
2018-11-28T04:56:18.504Z,1009.89
2018-11-28T04:57:18.500Z,1009.87
2018-11-28T04:58:18.489Z,1009.87
2018-11-28T04:59:18.490Z,1009.88
2018-11-28T05:00:18.509Z,1009.86
2018-11-28T05:01:18.439Z,1009.86
2018-11-28T05:02:18.529Z,1009.79
2018-11-28T05:03:18.441Z,1009.83
2018-11-28T05:04:18.429Z,1009.82
2018-11-28T05:05:18.426Z,1009.80
2018-11-28T05:06:18.386Z,1009.81
2018-11-28T05:07:18.414Z,1009.82
2018-11-28T05:08:18.362Z,1009.84
2018-11-28T05:09:18.408Z,1009.82
2018-11-28T05:10:18.374Z,1009.85
2018-11-28T05:11:18.353Z,1009.78
2018-11-28T05:12:18.331Z,1009.77
2018-11-28T05:13:18.346Z,1009.74
2018-11-28T05:14:18.302Z,1009.72
2018-11-28T05:15:18.312Z,1009.68
2018-11-28T05:16:18.305Z,1009.64
2018-11-28T05:17:18.268Z,1009.67
2018-11-28T05:18:18.251Z,1009.64
2018-11-28T05:19:18.257Z,1009.60
2018-11-28T05:20:18.244Z,1009.62
2018-11-28T05:21:18.261Z,1009.61
2018-11-28T05:22:18.216Z,1009.62
2018-11-28T05:23:18.176Z,1009.65
2018-11-28T05:24:18.210Z,1009.64
2018-11-28T05:25:18.240Z,1009.65
2018-11-28T05:26:18.196Z,1009.64
2018-11-28T05:27:18.160Z,1009.65
2018-11-28T05:28:18.150Z,1009.71
2018-11-28T05:29:18.130Z,1009.69
2018-11-28T05:30:18.147Z,1009.77
2018-11-28T05:31:18.120Z,1009.75
2018-11-28T05:32:18.115Z,1009.78
2018-11-28T05:33:18.091Z,1009.80
2018-11-28T05:34:18.119Z,1009.86
2018-11-28T05:35:18.072Z,1009.90
2018-11-28T05:36:18.070Z,1009.91
2018-11-28T05:37:18.048Z,1009.91
2018-11-28T05:38:18.012Z,1009.92
2018-11-28T05:39:18.022Z,1009.99
2018-11-28T05:40:17.988Z,1010.00
2018-11-28T05:41:17.993Z,1010.02
2018-11-28T05:42:17.999Z,1010.07
2018-11-28T05:43:17.964Z,1010.07
2018-11-28T05:44:17.954Z,1010.06
2018-11-28T05:45:17.931Z,1010.09
2018-11-28T05:46:17.921Z,1010.09
2018-11-28T05:47:17.919Z,1010.08
2018-11-28T05:48:17.875Z,1010.10
2018-11-28T05:49:17.867Z,1010.08
2018-11-28T05:50:17.857Z,1010.06
2018-11-28T05:51:17.898Z,1010.12
2018-11-28T05:52:17.862Z,1010.14
2018-11-28T05:53:17.841Z,1010.15
2018-11-28T05:54:17.809Z,1010.19
2018-11-28T05:55:17.843Z,1010.22
2018-11-28T05:56:17.829Z,1010.19
2018-11-28T05:57:17.764Z,1010.19
2018-11-28T05:58:17.819Z,1010.20
2018-11-28T05:59:27.629Z,1010.16
2018-11-28T06:01:11.156Z,1010.11
2018-11-28T06:02:11.126Z,1010.10
2018-11-28T06:03:11.122Z,1010.12
2018-11-28T06:04:11.088Z,1010.09
2018-11-28T06:05:11.080Z,1010.14
2018-11-28T06:06:11.080Z,1010.14
2018-11-28T06:07:11.061Z,1010.16
2018-11-28T06:08:11.613Z,1010.20
2018-11-28T06:09:11.061Z,1010.20
2018-11-28T06:10:11.027Z,1010.17
2018-11-28T06:11:11.036Z,1010.17
2018-11-28T06:12:11.025Z,1010.17
2018-11-28T06:13:11.019Z,1010.17
2018-11-28T06:14:10.966Z,1010.17
2018-11-28T06:15:10.959Z,1010.22
2018-11-28T06:16:10.942Z,1010.23
2018-11-28T06:17:10.980Z,1010.25
2018-11-28T06:18:10.920Z,1010.22
2018-11-28T06:19:10.930Z,1010.20
2018-11-28T06:20:10.968Z,1010.22
2018-11-28T06:21:10.938Z,1010.21
2018-11-28T06:22:10.885Z,1010.20
2018-11-28T06:23:10.893Z,1010.19
2018-11-28T06:24:10.874Z,1010.19
2018-11-28T06:25:15.863Z,1010.20
2018-11-28T06:26:10.840Z,1010.20
2018-11-28T06:27:12.777Z,1010.24
2018-11-28T06:28:10.899Z,1010.23
2018-11-28T06:29:10.822Z,1010.23
2018-11-28T06:30:10.806Z,1010.24
2018-11-28T06:31:10.785Z,1010.26
2018-11-28T06:32:10.780Z,1010.24
2018-11-28T06:33:10.753Z,1010.31
2018-11-28T06:34:10.743Z,1010.27
2018-11-28T06:35:10.714Z,1010.23
2018-11-28T06:36:10.729Z,1010.27
2018-11-28T06:37:10.714Z,1010.28
2018-11-28T06:38:10.678Z,1010.29
2018-11-28T06:39:10.694Z,1010.39
2018-11-28T06:40:10.685Z,1010.39
2018-11-28T06:41:10.701Z,1010.45
2018-11-28T06:42:10.631Z,1010.45
2018-11-28T06:43:10.675Z,1010.47
2018-11-28T06:44:10.607Z,1010.48
2018-11-28T06:45:10.629Z,1010.50
2018-11-28T06:46:10.588Z,1010.50
2018-11-28T06:47:10.571Z,1010.44
2018-11-28T06:48:10.562Z,1010.48
2018-11-28T06:49:10.673Z,1010.39
2018-11-28T06:50:10.551Z,1010.43
2018-11-28T06:51:11.167Z,1010.44
2018-11-28T06:52:10.567Z,1010.42
2018-11-28T06:53:10.655Z,1010.54
2018-11-28T06:54:10.714Z,1010.56
2018-11-28T06:55:10.517Z,1010.53
2018-11-28T06:56:19.908Z,1010.54
2018-11-28T06:58:04.926Z,1010.55
2018-11-28T06:59:04.862Z,1010.56
2018-11-28T07:00:04.886Z,1010.61
2018-11-28T07:01:04.889Z,1010.59
2018-11-28T07:02:04.818Z,1010.56
2018-11-28T07:03:04.802Z,1010.56
2018-11-28T07:04:04.774Z,1010.55
2018-11-28T07:05:04.785Z,1010.57
2018-11-28T07:06:04.761Z,1010.56
2018-11-28T07:07:04.817Z,1010.54
2018-11-28T07:09:27.982Z,1010.53
2018-11-28T07:10:27.948Z,1010.57
2018-11-28T07:11:28.026Z,1010.55
2018-11-28T07:12:28.501Z,1010.60
2018-11-28T07:13:28.380Z,1010.64
2018-11-28T07:14:27.961Z,1010.60
2018-11-28T07:15:27.958Z,1010.64
2018-11-28T07:16:27.914Z,1010.58
2018-11-28T07:17:27.883Z,1010.60
2018-11-28T07:18:27.887Z,1010.59
2018-11-28T07:19:27.848Z,1010.62
2018-11-28T07:20:27.821Z,1010.63
2018-11-28T07:21:27.856Z,1010.66
2018-11-28T07:22:27.836Z,1010.64
2018-11-28T07:23:27.823Z,1010.66
2018-11-28T07:24:27.824Z,1010.71
2018-11-28T07:25:27.828Z,1010.66
2018-11-28T07:26:27.751Z,1010.69
2018-11-28T07:27:27.744Z,1010.69
2018-11-28T07:28:27.727Z,1010.70
2018-11-28T07:29:27.724Z,1010.67
2018-11-28T07:30:27.727Z,1010.69
2018-11-28T07:31:27.724Z,1010.71
2018-11-28T07:32:27.676Z,1010.69
2018-11-28T07:33:27.697Z,1010.72
2018-11-28T07:34:27.704Z,1010.70
2018-11-28T07:35:27.647Z,1010.72
2018-11-28T07:36:27.657Z,1010.69
2018-11-28T07:37:27.692Z,1010.69
2018-11-28T07:38:27.636Z,1010.70
2018-11-28T07:39:27.618Z,1010.72
2018-11-28T07:40:27.611Z,1010.70
2018-11-28T07:41:37.041Z,1010.70
2018-11-28T07:43:20.984Z,1010.70
2018-11-28T07:44:20.968Z,1010.71
2018-11-28T07:45:20.937Z,1010.71
2018-11-28T07:46:20.932Z,1010.72
2018-11-28T07:47:20.902Z,1010.74
2018-11-28T07:48:20.906Z,1010.72
2018-11-28T07:49:20.935Z,1010.71
2018-11-28T07:50:20.870Z,1010.76
2018-11-28T07:51:20.858Z,1010.77
2018-11-28T07:52:20.867Z,1010.75
2018-11-28T07:53:20.841Z,1010.73
2018-11-28T07:54:20.829Z,1010.75
2018-11-28T07:55:21.747Z,1010.71
2018-11-28T07:56:20.816Z,1010.73
2018-11-28T07:57:20.788Z,1010.72
2018-11-28T07:58:20.908Z,1010.73
2018-11-28T07:59:20.821Z,1010.73
2018-11-28T08:00:20.761Z,1010.76
2018-11-28T08:01:20.773Z,1010.77
2018-11-28T08:02:20.754Z,1010.80
2018-11-28T08:03:20.720Z,1010.75
2018-11-28T08:04:20.986Z,1010.84
2018-11-28T08:05:20.709Z,1010.86
2018-11-28T08:06:20.705Z,1010.84
2018-11-28T08:07:20.780Z,1010.85
2018-11-28T08:08:20.711Z,1010.88
2018-11-28T08:09:20.651Z,1010.85
2018-11-28T08:10:20.713Z,1010.91
2018-11-28T08:11:20.634Z,1010.92
2018-11-28T08:12:20.622Z,1010.90
2018-11-28T08:13:20.634Z,1010.93
2018-11-28T08:14:20.591Z,1010.90
2018-11-28T08:15:20.597Z,1010.88
2018-11-28T08:16:20.598Z,1010.89
2018-11-28T08:17:20.585Z,1010.89
2018-11-28T08:18:30.032Z,1010.86
2018-11-28T08:20:13.940Z,1010.91
